Stations météo

réclame
Mon MeteoGroup
K13 Alpha, Pays-Bas (6252): Température de l'air & dewpoint: 23.05.2020 10:00:00 - 29.05.2020 10:00:00 (CEST)K13 Alpha, Pays-Bas (6252): water temperature: 23.05.2020 10:00:00 - 29.05.2020 10:00:00 (CEST)K13 Alpha, Pays-Bas (6252): Vitesse du vent & gusts: 23.05.2020 10:00:00 - 29.05.2020 10:00:00 (CEST)K13 Alpha, Pays-Bas (6252): Direction du vent: 23.05.2020 10:00:00 - 29.05.2020 10:00:00 (CEST)K13 Alpha, Pays-Bas (6252): reduced air pressure: 23.05.2020 10:00:00 - 29.05.2020 10:00:00 (CEST)
Date & Time tt [°C] td [°C] tw [°C] ff [km/h] ff [knt] fx [km/h] fx [knt] dd ppp [hPa]
29.05.2020 10:00:00 12,1 8,4 12,2 18 10 18 10 E 1032,1
29.05.2020 09:00:00 12,1 8,2 12,2 16 9 18 10 E 1032,2
29.05.2020 08:00:00 12,2 8,1 12,2 18 10 18 10 E 1032,2
29.05.2020 07:00:00 12,1 8,1 12,2 21 11 18 10 E 1032,3
29.05.2020 06:00:00 11,7 8,7 12,2 16 9 18 10 E 1032,2
29.05.2020 05:00:00 11,8 8,7 12,2 16 9 18 10 E 1032,5
29.05.2020 04:00:00 11,8 8,1 12,2 16 9 18 10 E 1032,6
29.05.2020 03:00:00 11,9 8,3 12,1 16 9 18 10 ESE 1032,7
29.05.2020 02:00:00 11,7 8,5 12,1 15 8 14 8 E 1033,1
29.05.2020 01:00:00 11,8 8,4 12,1 13 7 14 8 ESE 1033,3
29.05.2020 00:00:00 11,9 7,9 12,2 16 9 14 8 E 1033,5
28.05.2020 23:00:00 12,0 7,8 12,3 15 8 14 8 E 1033,9
28.05.2020 22:00:00 12,1 7,1 12,3 15 8 18 10 E 1034,0
28.05.2020 21:00:00 12,3 6,8 12,7 13 7 18 10 E 1034,0
28.05.2020 20:00:00 12,4 6,8 13,1 13 7 14 8 E 1034,5
28.05.2020 19:00:00 12,4 7,1 13,4 15 8 14 8 E 1034,9
28.05.2020 18:00:00 12,4 6,9 13,7 13 7 14 8 ENE 1035,3
28.05.2020 17:00:00 12,3 6,7 13,6 7 4 11 6 ENE 1035,7
28.05.2020 16:00:00 12,1 8,0 13,6 0 0 0 0 N 1036,1
28.05.2020 15:00:00 12,0 8,3 13,3 0 0 0 0 N 1036,4
28.05.2020 14:00:00 12,0 8,8 13,1 0 0 0 0 N 1036,8
28.05.2020 13:00:00 11,9 9,3 12,5 0 0 0 0 N 1037,1
28.05.2020 12:00:00 11,8 9,2 12,4 2 1 7 4 ENE 1037,3
28.05.2020 11:00:00 12,2 9,0 12,2 0 0 7 4 N 1037,6
28.05.2020 10:00:00 11,8 9,1 12,1 9 5 11 6 E 1037,5
28.05.2020 09:00:00 12,2 9,2 12,1 11 6 14 8 ENE 1037,7
28.05.2020 08:00:00 11,8 9,3 12,1 15 8 14 8 ENE 1037,6
28.05.2020 07:00:00 11,7 9,8 12,1 13 7 14 8 ENE 1037,6
28.05.2020 06:00:00 11,3 9,2 12,1 13 7 14 8 ENE 1037,5
28.05.2020 05:00:00 11,4 8,9 12,1 13 7 18 10 ENE 1037,5
28.05.2020 04:00:00 11,4 9,0 12,0 15 8 18 10 ENE 1037,5
28.05.2020 03:00:00 11,4 9,1 12,0 16 9 18 10 ENE 1037,5
28.05.2020 02:00:00 11,5 8,9 12,0 16 9 18 10 ENE 1037,7
28.05.2020 01:00:00 11,6 8,8 12,0 16 9 22 12 ENE 1038,0
28.05.2020 00:00:00 11,7 8,5 12,0 21 11 25 14 ENE 1037,8
27.05.2020 23:00:00 11,7 8,9 12,1 24 13 25 14 ENE 1037,9
27.05.2020 22:00:00 11,8 8,8 12,1 22 12 25 14 NE 1037,6
27.05.2020 21:00:00 11,9 9,1 12,1 18 10 22 12 ENE 1037,0
27.05.2020 20:00:00 11,8 9,4 12,2 21 11 22 12 NE 1036,9
27.05.2020 19:00:00 11,7 9,2 12,2 21 11 25 14 NE 1037,1
27.05.2020 18:00:00 11,5 9,1 12,3 22 12 25 14 NE 1037,2
27.05.2020 17:00:00 11,5 9,2 12,2 21 11 25 14 NE 1037,3
27.05.2020 16:00:00 11,5 8,9 12,2 22 12 25 14 NE 1037,3
27.05.2020 15:00:00 12,3 9,0 12,2 16 9 18 10 NNE 1037,2
27.05.2020 14:00:00 12,3 9,1 - 16 9 18 10 NNE 1037,2
27.05.2020 13:00:00 11,8 9,2 12,2 14 8 18 10 NNE 1037,2
27.05.2020 12:00:00 11,6 9,2 12,1 18 10 22 12 NNE 1037,4
27.05.2020 11:00:00 12,5 9,9 12,1 15 8 14 8 NNE 1037,2
27.05.2020 10:00:00 12,8 10,4 12,0 15 8 14 8 NNE 1036,9
27.05.2020 09:00:00 12,9 11,0 12,0 13 7 18 10 N 1036,7
27.05.2020 08:00:00 12,7 10,9 12,0 22 12 25 14 NNE 1036,4
27.05.2020 07:00:00 12,3 11,1 12,0 21 11 22 12 N 1036,3
27.05.2020 06:00:00 11,7 11,2 11,9 18 10 18 10 NNE 1036,2
27.05.2020 05:00:00 11,7 11,0 11,9 15 8 18 10 NNE 1036,3
27.05.2020 04:00:00 11,7 11,2 11,9 18 10 18 10 NNE 1036,4
27.05.2020 03:00:00 11,8 11,2 11,9 18 10 18 10 N 1036,6
27.05.2020 02:00:00 11,9 10,9 11,9 16 9 18 10 N 1036,6
27.05.2020 01:00:00 11,9 10,5 11,9 13 7 14 8 N 1036,5
27.05.2020 00:00:00 12,0 10,3 11,9 13 7 14 8 N 1036,7
26.05.2020 23:00:00 12,1 10,3 11,9 15 8 14 8 NNE 1036,8
26.05.2020 22:00:00 12,3 10,2 12,0 13 7 18 10 NNE 1036,5
26.05.2020 21:00:00 12,4 10,4 12,1 18 10 22 12 N 1036,4
26.05.2020 20:00:00 12,6 9,9 12,3 21 11 22 12 N 1036,1
26.05.2020 19:00:00 12,8 9,6 12,6 15 8 18 10 N 1036,3
26.05.2020 18:00:00 12,8 9,6 12,7 16 9 18 10 N 1036,2
26.05.2020 17:00:00 13,0 9,4 12,5 14 8 18 10 N 1036,3
26.05.2020 16:00:00 13,1 9,4 12,1 18 10 22 12 NNW 1036,5
26.05.2020 15:00:00 13,4 9,1 12,1 24 13 22 12 NNW 1036,4
26.05.2020 14:00:00 12,9 10,1 12,1 22 12 25 14 NNW 1036,3
26.05.2020 13:00:00 12,9 10,1 12,2 24 13 22 12 NNW 1036,2
26.05.2020 12:00:00 12,5 10,6 11,9 14 8 18 10 NNW 1036,0
26.05.2020 11:00:00 12,1 10,5 11,9 18 10 18 10 WSW 1035,8
26.05.2020 10:00:00 13,2 10,6 11,8 18 10 22 12 SSW 1035,7
26.05.2020 09:00:00 12,9 10,5 11,8 24 13 22 12 SSW 1035,1
26.05.2020 08:00:00 12,7 10,0 11,8 24 13 25 14 SSW 1035,0
26.05.2020 07:00:00 12,3 9,8 11,8 26 14 25 14 SSW 1034,9
26.05.2020 06:00:00 12,0 9,9 11,8 26 14 25 14 SSW 1035,1
26.05.2020 05:00:00 12,3 9,3 11,8 28 15 25 14 SSW 1034,7
26.05.2020 04:00:00 12,2 9,9 11,7 28 15 25 14 S 1034,8
26.05.2020 03:00:00 12,1 9,5 11,7 24 13 22 12 S 1035,2
26.05.2020 02:00:00 12,1 9,4 11,7 24 13 22 12 S 1035,4
26.05.2020 01:00:00 12,0 9,7 11,7 21 11 22 12 S 1035,4
26.05.2020 00:00:00 11,9 10,2 11,7 16 9 18 10 S 1035,6
25.05.2020 23:00:00 11,9 10,3 11,7 15 8 14 8 S 1035,7
25.05.2020 22:00:00 11,9 10,5 11,8 13 7 14 8 S 1035,4
25.05.2020 21:00:00 12,3 10,4 12,0 0 0 11 6 N 1035,3
25.05.2020 20:00:00 12,8 10,1 12,5 9 5 11 6 SSE 1035,2
25.05.2020 19:00:00 12,7 9,6 13,1 0 0 0 0 N 1035,3
25.05.2020 18:00:00 12,8 9,2 13,2 0 0 4 2 N 1035,5
25.05.2020 17:00:00 12,9 10,3 - 0 0 7 4 N 1035,7
25.05.2020 16:00:00 12,6 10,0 12,4 0 0 11 6 N 1036,0
25.05.2020 15:00:00 12,5 10,2 12,3 11 6 11 6 WNW 1035,9
25.05.2020 14:00:00 12,5 10,1 12,0 11 6 11 6 NNW 1035,9
25.05.2020 13:00:00 12,6 9,9 11,9 13 7 14 8 N 1035,6
25.05.2020 12:00:00 12,6 9,9 11,8 15 8 14 8 NNW 1035,6
25.05.2020 11:00:00 12,1 9,6 11,7 16 9 18 10 NNW 1035,4
25.05.2020 10:00:00 12,2 9,9 11,6 21 11 22 12 NNW 1035,2
25.05.2020 09:00:00 12,3 9,9 11,6 18 10 25 14 NW 1034,7
25.05.2020 08:00:00 12,4 9,4 11,7 28 15 29 16 NW 1034,2
25.05.2020 07:00:00 12,2 9,9 11,6 26 14 25 14 NW 1033,9
25.05.2020 06:00:00 12,1 9,9 11,6 28 15 29 16 NNW 1033,6
25.05.2020 05:00:00 12,2 9,9 11,7 31 17 32 18 NNW 1033,4
25.05.2020 04:00:00 12,3 10,2 11,6 37 20 36 19 NW 1033,0
25.05.2020 03:00:00 12,6 10,1 11,6 35 19 36 19 NW 1032,6
25.05.2020 02:00:00 12,8 10,0 11,6 35 19 36 19 NW 1032,4
25.05.2020 01:00:00 12,4 10,2 11,6 35 19 36 19 WNW 1032,2
25.05.2020 00:00:00 12,5 10,4 11,6 39 21 36 19 WNW 1032,0
24.05.2020 23:00:00 12,6 10,3 11,6 42 23 43 23 WNW 1031,5
24.05.2020 22:00:00 12,7 10,3 11,6 41 22 40 21 W 1030,9
24.05.2020 21:00:00 12,4 10,6 11,7 41 22 40 21 WNW 1030,5
24.05.2020 20:00:00 12,4 10,5 11,7 35 19 36 19 WNW 1030,0
24.05.2020 19:00:00 12,8 10,5 11,8 37 20 40 21 WNW 1029,6
24.05.2020 18:00:00 12,9 10,5 11,7 37 20 40 21 WNW 1029,2
24.05.2020 17:00:00 12,7 10,5 11,7 39 21 40 21 W 1028,7
24.05.2020 16:00:00 12,8 10,5 11,7 42 23 43 23 W 1028,3
24.05.2020 15:00:00 12,7 10,4 11,6 41 22 40 21 W 1027,7
24.05.2020 14:00:00 12,7 10,3 11,5 36 19 43 23 W 1027,1
24.05.2020 13:00:00 12,5 10,3 11,5 46 25 43 23 W 1026,4
24.05.2020 12:00:00 12,4 10,1 11,5 46 25 50 27 W 1025,7
24.05.2020 11:00:00 12,3 10,0 11,5 44 24 47 25 W 1025,2
24.05.2020 10:00:00 12,1 9,6 11,5 42 23 43 23 W 1024,8
24.05.2020 09:00:00 11,6 9,4 11,5 41 22 50 27 WSW 1024,4
24.05.2020 08:00:00 11,8 8,8 11,5 48 26 47 25 WSW 1023,9
24.05.2020 07:00:00 11,7 8,3 11,5 50 27 54 29 WSW 1023,3
24.05.2020 06:00:00 11,8 8,4 11,5 48 26 50 27 W 1023,0
24.05.2020 05:00:00 12,0 8,1 11,5 50 27 50 27 W 1022,6
24.05.2020 04:00:00 12,2 8,0 11,5 46 25 47 25 W 1022,5
24.05.2020 03:00:00 12,2 8,3 11,5 46 25 47 25 WSW 1022,6
24.05.2020 02:00:00 12,8 7,5 11,5 42 23 50 27 W 1022,6
24.05.2020 01:00:00 12,5 8,5 11,5 46 25 43 23 W 1022,4
24.05.2020 00:00:00 12,8 8,2 11,5 39 21 40 21 W 1022,0
23.05.2020 23:00:00 13,2 7,9 11,5 36 19 50 27 W 1021,7
23.05.2020 22:00:00 13,2 7,6 11,6 44 24 47 25 W 1021,0
23.05.2020 21:00:00 13,4 7,8 11,6 41 22 43 23 W 1020,6
23.05.2020 20:00:00 12,8 8,4 11,6 40 21 58 31 SW 1020,2
23.05.2020 19:00:00 13,0 8,2 11,5 43 23 50 27 SW 1019,7
23.05.2020 18:00:00 12,9 7,8 11,5 39 21 50 27 SW 1019,4
23.05.2020 17:00:00 12,8 7,9 11,5 44 24 47 25 SW 1019,5
23.05.2020 16:00:00 12,5 8,8 11,5 41 22 47 25 SW 1019,1
23.05.2020 15:00:00 12,6 8,7 11,5 41 22 43 23 SSW 1018,9
23.05.2020 14:00:00 12,4 9,0 11,5 41 22 40 21 SW 1018,9
23.05.2020 13:00:00 12,1 9,1 11,5 39 21 36 19 SW 1019,2
23.05.2020 12:00:00 12,2 8,7 11,5 37 20 40 21 SW 1019,1
23.05.2020 11:00:00 11,9 8,4 11,4 41 22 47 25 SW 1018,7
23.05.2020 10:00:00 11,8 8,0 11,4 50 27 50 27 WSW 1018,3

tt = Température de l'air
td = dewpoint
tw = water temperature
ff = Vitesse du vent
fx = gusts
dd = Direction du vent
ppp = reduced air pressure

stations d'obs. à proximité